createdAt,value
2018-07-07T00:00:43.665Z,11.27
2018-07-07T00:03:13.421Z,11.23
2018-07-07T00:05:43.304Z,11.60
2018-07-07T00:08:13.039Z,10.80
2018-07-07T00:10:54.685Z,10.93
2018-07-07T00:13:28.078Z,11.37
2018-07-07T00:16:01.242Z,10.97
2018-07-07T00:18:30.960Z,10.97
2018-07-07T00:21:00.740Z,11.57
2018-07-07T00:23:30.445Z,10.77
2018-07-07T00:26:02.091Z,11.40
2018-07-07T00:28:32.103Z,9.70
2018-07-07T00:31:01.850Z,10.60
2018-07-07T00:33:31.653Z,10.57
2018-07-07T00:36:01.476Z,11.10
2018-07-07T00:38:31.263Z,11.17
2018-07-07T00:41:01.044Z,12.53
2018-07-07T00:43:30.789Z,12.40
2018-07-07T00:46:00.563Z,10.37
2018-07-07T00:48:30.331Z,11.07
2018-07-07T00:51:00.208Z,11.63
2018-07-07T00:53:29.844Z,11.17
2018-07-07T00:55:59.553Z,11.20
2018-07-07T00:58:29.321Z,11.33
2018-07-07T01:00:59.073Z,11.77
2018-07-07T01:03:28.940Z,11.30
2018-07-07T01:05:58.572Z,11.33
2018-07-07T01:08:28.373Z,11.73
2018-07-07T01:10:58.120Z,11.70
2018-07-07T01:13:28.000Z,11.10
2018-07-07T01:15:57.750Z,11.97
2018-07-07T01:18:27.618Z,9.87
2018-07-07T01:20:57.397Z,10.97
2018-07-07T01:23:27.149Z,12.13
2018-07-07T01:25:56.896Z,10.77
2018-07-07T01:28:26.584Z,11.63
2018-07-07T01:30:56.379Z,11.83
2018-07-07T01:33:26.421Z,11.27
2018-07-07T01:35:55.995Z,12.40
2018-07-07T01:38:25.819Z,11.17
2018-07-07T01:40:55.577Z,12.10
2018-07-07T01:43:25.385Z,11.13
2018-07-07T01:45:55.249Z,11.40
2018-07-07T01:48:25.200Z,12.10
2018-07-07T01:50:54.916Z,11.97
2018-07-07T01:53:24.599Z,11.40
2018-07-07T01:55:54.289Z,11.30
2018-07-07T01:58:24.045Z,12.30
2018-07-07T02:00:53.826Z,13.07
2018-07-07T02:03:23.459Z,11.23
2018-07-07T02:05:53.165Z,11.03
2018-07-07T02:08:22.987Z,11.70
2018-07-07T02:10:52.701Z,11.40
2018-07-07T02:13:22.561Z,11.67
2018-07-07T02:15:52.321Z,11.63
2018-07-07T02:18:22.290Z,12.00
2018-07-07T02:20:52.051Z,13.30
2018-07-07T02:23:21.915Z,11.27
2018-07-07T02:25:51.673Z,10.77
2018-07-07T02:28:21.540Z,11.03
2018-07-07T02:30:51.220Z,12.30
2018-07-07T02:33:21.056Z,10.37
2018-07-07T02:35:50.827Z,10.90
2018-07-07T02:38:20.580Z,11.60
2018-07-07T02:40:50.340Z,11.30
2018-07-07T02:43:20.127Z,10.60
2018-07-07T02:45:49.859Z,10.70
2018-07-07T02:48:19.644Z,10.70
2018-07-07T02:50:49.364Z,10.00
2018-07-07T02:53:19.101Z,10.97
2018-07-07T02:55:48.856Z,10.10
2018-07-07T02:58:18.520Z,10.37
2018-07-07T03:00:48.309Z,9.90
2018-07-07T03:03:18.160Z,9.50
2018-07-07T03:05:47.839Z,10.20
2018-07-07T03:08:17.618Z,10.50
2018-07-07T03:10:47.341Z,8.60
2018-07-07T03:13:17.140Z,10.57
2018-07-07T03:15:46.449Z,9.47
2018-07-07T03:18:16.184Z,9.07
2018-07-07T03:20:45.905Z,10.33
2018-07-07T03:23:15.604Z,9.77
2018-07-07T03:25:45.485Z,8.70
2018-07-07T03:28:15.224Z,9.10
2018-07-07T03:30:44.994Z,8.80
2018-07-07T03:33:14.765Z,9.10
2018-07-07T03:35:44.520Z,8.20
2018-07-07T03:38:14.288Z,8.43
2018-07-07T03:40:44.116Z,9.27
2018-07-07T03:43:13.912Z,8.50
2018-07-07T03:45:43.593Z,8.37
2018-07-07T03:48:13.379Z,7.73
2018-07-07T03:50:43.256Z,8.37
2018-07-07T03:53:13.044Z,8.80
2018-07-07T03:55:42.873Z,8.60
2018-07-07T03:58:12.722Z,7.80
2018-07-07T04:00:42.610Z,9.00
2018-07-07T04:03:12.369Z,8.60
2018-07-07T04:05:42.120Z,7.80
2018-07-07T04:08:11.975Z,8.10
2018-07-07T04:10:41.733Z,7.70
2018-07-07T04:13:11.407Z,8.40
2018-07-07T04:15:41.156Z,8.97
2018-07-07T04:18:11.020Z,8.67
2018-07-07T04:20:40.808Z,8.00
2018-07-07T04:23:10.648Z,8.70
2018-07-07T04:25:40.409Z,7.70
2018-07-07T04:28:10.277Z,9.13
2018-07-07T04:30:40.073Z,8.57
2018-07-07T04:33:09.897Z,8.23
2018-07-07T04:35:39.653Z,8.27
2018-07-07T04:38:09.427Z,9.20
2018-07-07T04:40:39.188Z,8.60
2018-07-07T04:43:08.969Z,9.53
2018-07-07T04:45:38.712Z,9.40
2018-07-07T04:48:08.619Z,8.50
2018-07-07T04:50:38.340Z,8.27
2018-07-07T04:53:08.065Z,9.40
2018-07-07T04:55:37.901Z,9.00
2018-07-07T04:58:07.679Z,10.17
2018-07-07T05:00:37.521Z,8.63
2018-07-07T05:03:07.380Z,9.47
2018-07-07T05:05:37.250Z,9.10
2018-07-07T05:08:06.936Z,10.20
2018-07-07T05:10:36.773Z,9.07
2018-07-07T05:13:06.533Z,10.00
2018-07-07T05:15:36.466Z,9.80
2018-07-07T05:18:06.284Z,11.00
2018-07-07T05:20:35.930Z,10.40
2018-07-07T05:23:05.785Z,9.27
2018-07-07T05:25:35.472Z,9.27
2018-07-07T05:28:05.316Z,8.87
2018-07-07T05:30:35.104Z,9.47
2018-07-07T05:33:04.880Z,9.00
2018-07-07T05:35:34.636Z,9.17
2018-07-07T05:38:04.604Z,8.63
2018-07-07T05:40:34.355Z,7.60
2018-07-07T05:43:04.237Z,8.97
2018-07-07T05:45:33.967Z,7.87
2018-07-07T05:48:08.203Z,8.70
2018-07-07T05:50:38.125Z,9.93
2018-07-07T05:53:07.984Z,8.43
2018-07-07T05:55:37.850Z,7.70
2018-07-07T05:58:07.427Z,7.77
2018-07-07T06:00:37.156Z,8.73
2018-07-07T06:03:07.030Z,7.37
2018-07-07T06:05:36.851Z,8.20
2018-07-07T06:08:06.607Z,7.70
2018-07-07T06:10:36.461Z,7.53
2018-07-07T06:13:05.822Z,7.40
2018-07-07T06:15:35.526Z,8.23
2018-07-07T06:18:05.445Z,7.77
2018-07-07T06:20:35.157Z,7.80
2018-07-07T06:23:05.119Z,7.80
2018-07-07T06:25:34.883Z,7.73
2018-07-07T06:28:04.753Z,8.23
2018-07-07T06:30:34.399Z,6.30
2018-07-07T06:33:04.127Z,6.63
2018-07-07T06:35:33.809Z,7.93
2018-07-07T06:38:03.433Z,7.87
2018-07-07T06:40:33.297Z,6.43
2018-07-07T06:43:02.404Z,8.53
2018-07-07T06:45:32.085Z,6.80
2018-07-07T06:48:01.804Z,6.30
2018-07-07T06:50:31.459Z,6.50
2018-07-07T06:53:01.160Z,6.63
2018-07-07T06:55:30.880Z,5.97
2018-07-07T06:58:00.702Z,6.00
2018-07-07T07:00:30.399Z,6.37
2018-07-07T07:03:00.106Z,5.00
2018-07-07T07:05:29.980Z,5.60
2018-07-07T07:07:59.870Z,5.37
2018-07-07T07:10:29.708Z,5.60
2018-07-07T07:12:59.464Z,5.47
2018-07-07T07:15:29.544Z,4.87
2018-07-07T07:17:59.568Z,5.00
2018-07-07T07:20:29.414Z,5.10
2018-07-07T07:22:59.100Z,3.40
2018-07-07T07:25:28.786Z,4.20
2018-07-07T07:27:58.440Z,4.58
2018-07-07T07:30:28.412Z,3.72
2018-07-07T07:32:58.165Z,4.03
2018-07-07T07:35:27.929Z,3.90
2018-07-07T07:37:57.702Z,4.17
2018-07-07T07:40:27.356Z,5.00
2018-07-07T07:42:57.088Z,4.12
2018-07-07T07:45:26.804Z,4.43
2018-07-07T07:47:56.483Z,3.95
2018-07-07T07:50:26.250Z,3.45
2018-07-07T07:52:56.016Z,3.65
2018-07-07T07:55:25.740Z,4.22
2018-07-07T07:57:55.541Z,3.42
2018-07-07T08:00:25.301Z,3.75
2018-07-07T08:02:55.154Z,3.55
2018-07-07T08:05:24.800Z,3.15
2018-07-07T08:07:54.772Z,3.47
2018-07-07T08:10:24.507Z,3.77
2018-07-07T08:12:54.200Z,3.92
2018-07-07T08:15:23.850Z,3.77
2018-07-07T08:17:53.549Z,3.60
2018-07-07T08:20:23.374Z,3.37
2018-07-07T08:22:53.385Z,3.40
2018-07-07T08:25:23.160Z,3.98
2018-07-07T08:27:52.917Z,3.50
2018-07-07T08:30:23.035Z,3.45
2018-07-07T08:32:52.880Z,3.70
2018-07-07T08:35:22.658Z,3.65
2018-07-07T08:37:52.556Z,4.33
2018-07-07T08:40:22.485Z,3.60
2018-07-07T08:42:52.186Z,4.07
2018-07-07T08:45:22.013Z,3.27
2018-07-07T08:47:51.752Z,3.80
2018-07-07T08:50:22.558Z,3.50
2018-07-07T08:52:52.570Z,3.87
2018-07-07T08:55:22.366Z,3.90
2018-07-07T08:57:52.101Z,3.73
2018-07-07T09:00:21.910Z,3.50
2018-07-07T09:02:51.728Z,3.47
2018-07-07T09:05:21.563Z,4.33
2018-07-07T09:07:51.609Z,3.52
2018-07-07T09:10:21.666Z,3.40
2018-07-07T09:12:51.583Z,3.22
2018-07-07T09:15:21.392Z,3.30
2018-07-07T09:17:51.596Z,3.35
2018-07-07T09:20:21.193Z,3.55
2018-07-07T09:22:50.882Z,3.53
2018-07-07T09:25:20.299Z,4.07
2018-07-07T09:27:49.679Z,4.13
2018-07-07T09:30:19.055Z,4.00
2018-07-07T09:32:48.453Z,4.77
2018-07-07T09:35:17.841Z,4.57
2018-07-07T09:37:47.333Z,3.87
2018-07-07T09:40:16.738Z,3.47
2018-07-07T09:42:46.217Z,3.70
2018-07-07T09:45:15.617Z,3.33
2018-07-07T09:47:44.997Z,3.40
2018-07-07T09:50:14.411Z,3.37
2018-07-07T09:52:44.185Z,3.20
2018-07-07T09:55:13.579Z,2.98
2018-07-07T09:57:43.344Z,3.02
2018-07-07T10:00:21.740Z,3.25
2018-07-07T10:02:51.243Z,2.67
2018-07-07T10:05:20.611Z,3.22
2018-07-07T10:07:49.990Z,2.87
2018-07-07T10:10:19.392Z,3.17
2018-07-07T10:12:48.769Z,3.00
2018-07-07T10:15:18.466Z,2.47
2018-07-07T10:17:47.844Z,3.10
2018-07-07T10:20:17.719Z,2.93
2018-07-07T10:22:47.350Z,2.90
2018-07-07T10:25:17.456Z,2.90
2018-07-07T10:27:47.360Z,2.87
2018-07-07T10:30:17.089Z,3.30
2018-07-07T10:32:46.799Z,3.47
2018-07-07T10:35:16.720Z,4.13
2018-07-07T10:37:46.322Z,3.43
2018-07-07T10:40:16.042Z,3.83
2018-07-07T10:42:45.825Z,3.37
2018-07-07T10:45:15.495Z,4.27
2018-07-07T10:47:45.269Z,3.53
2018-07-07T10:50:14.961Z,4.07
2018-07-07T10:52:44.590Z,3.50
2018-07-07T10:55:14.402Z,3.50
2018-07-07T10:57:44.362Z,4.13
2018-07-07T11:00:13.617Z,4.10
2018-07-07T11:02:43.330Z,3.97
2018-07-07T11:05:13.251Z,4.00
2018-07-07T11:07:43.040Z,4.40
2018-07-07T11:10:12.804Z,3.87
2018-07-07T11:12:42.677Z,4.10
2018-07-07T11:15:12.384Z,4.20
2018-07-07T11:17:42.163Z,3.40
2018-07-07T11:20:11.813Z,4.00
2018-07-07T11:22:41.572Z,3.90
2018-07-07T11:25:11.327Z,4.00
2018-07-07T11:27:41.332Z,3.80
2018-07-07T11:30:11.157Z,4.20
2018-07-07T11:32:40.898Z,4.90
2018-07-07T11:35:10.621Z,4.43
2018-07-07T11:37:40.829Z,4.10
2018-07-07T11:40:09.911Z,4.50
2018-07-07T11:42:39.761Z,4.00
2018-07-07T11:45:08.738Z,4.30
2018-07-07T11:47:38.000Z,4.07
2018-07-07T11:50:08.033Z,4.13
2018-07-07T11:52:37.905Z,3.60
2018-07-07T11:55:07.727Z,3.73
2018-07-07T11:57:37.447Z,4.53
2018-07-07T12:00:07.025Z,4.20
2018-07-07T12:02:36.814Z,3.80
2018-07-07T12:05:06.320Z,3.40
2018-07-07T12:07:37.628Z,3.97
2018-07-07T12:10:11.338Z,4.50
2018-07-07T12:12:41.943Z,3.57
2018-07-07T12:15:12.208Z,3.87
2018-07-07T12:17:41.629Z,3.70
2018-07-07T12:20:11.496Z,3.83
2018-07-07T12:22:40.885Z,4.07
2018-07-07T12:25:10.661Z,4.80
2018-07-07T12:27:40.429Z,5.10
2018-07-07T12:30:09.878Z,4.90
2018-07-07T12:32:40.140Z,5.27
2018-07-07T12:35:10.632Z,5.10
2018-07-07T12:37:40.044Z,5.77
2018-07-07T12:40:09.856Z,5.57
2018-07-07T12:42:39.252Z,5.23
2018-07-07T12:45:09.106Z,4.53
2018-07-07T12:47:39.023Z,4.70
2018-07-07T12:50:08.937Z,4.73
2018-07-07T12:52:38.539Z,4.97
2018-07-07T12:55:08.513Z,5.50
2018-07-07T12:57:38.309Z,6.03
2018-07-07T13:00:08.238Z,5.43
2018-07-07T13:02:37.994Z,6.47
2018-07-07T13:05:07.400Z,5.60
2018-07-07T13:07:36.864Z,5.73
2018-07-07T13:10:06.328Z,5.53
2018-07-07T13:12:35.691Z,6.80
2018-07-07T13:15:07.178Z,5.97
2018-07-07T13:17:36.686Z,6.77
2018-07-07T13:20:06.190Z,6.90
2018-07-07T13:22:37.796Z,5.80
2018-07-07T13:25:08.181Z,4.63
2018-07-07T13:27:38.782Z,5.50
2018-07-07T13:30:09.284Z,4.60
2018-07-07T13:32:39.510Z,5.07
2018-07-07T13:35:10.400Z,4.90
2018-07-07T13:37:40.544Z,5.07
2018-07-07T13:40:09.958Z,6.20
2018-07-07T13:42:39.372Z,7.07
2018-07-07T13:45:08.756Z,6.80
2018-07-07T13:47:38.181Z,5.80
2018-07-07T13:50:07.652Z,6.00
2018-07-07T13:52:37.267Z,6.90
2018-07-07T13:55:06.736Z,6.10
2018-07-07T13:57:36.205Z,6.47
2018-07-07T14:00:06.145Z,6.70
2018-07-07T14:02:35.705Z,6.20
2018-07-07T14:05:06.173Z,5.43
2018-07-07T14:07:36.033Z,5.27
2018-07-07T14:10:05.343Z,5.40
2018-07-07T14:12:35.093Z,5.80
2018-07-07T14:15:05.082Z,5.20
2018-07-07T14:17:34.718Z,4.77
2018-07-07T14:20:04.034Z,4.90
2018-07-07T14:22:33.458Z,5.13
2018-07-07T14:25:02.868Z,5.13
2018-07-07T14:27:32.340Z,5.67
2018-07-07T14:30:01.885Z,5.47
2018-07-07T14:32:31.411Z,4.73
2018-07-07T14:35:00.860Z,5.07
2018-07-07T14:37:30.637Z,4.57
2018-07-07T14:40:01.376Z,5.27
2018-07-07T14:42:48.105Z,5.37
2018-07-07T14:45:21.370Z,5.20
2018-07-07T14:47:51.831Z,5.27
2018-07-07T14:50:21.394Z,4.53
2018-07-07T14:52:51.692Z,5.33
2018-07-07T14:55:22.577Z,5.00
2018-07-07T14:57:52.219Z,5.60
2018-07-07T15:00:24.877Z,5.50
2018-07-07T15:02:55.177Z,5.47
2018-07-07T15:05:24.581Z,5.37
2018-07-07T15:07:54.293Z,5.03
2018-07-07T15:10:23.786Z,4.70
2018-07-07T15:12:53.241Z,5.30
2018-07-07T15:15:22.731Z,4.70
2018-07-07T15:17:52.152Z,4.43
2018-07-07T15:20:21.680Z,4.50
2018-07-07T15:22:51.107Z,5.00
2018-07-07T15:25:20.483Z,4.80
2018-07-07T15:27:49.891Z,5.40
2018-07-07T15:30:19.305Z,4.63
2018-07-07T15:32:49.176Z,5.13
2018-07-07T15:35:19.139Z,4.40
2018-07-07T15:37:48.591Z,4.40
2018-07-07T15:40:18.132Z,5.20
2018-07-07T15:42:47.539Z,5.37
2018-07-07T15:45:17.338Z,4.70
2018-07-07T15:47:46.877Z,4.90
2018-07-07T15:50:16.454Z,4.70
2018-07-07T15:52:45.976Z,4.57
2018-07-07T15:55:15.400Z,4.80
2018-07-07T15:57:45.116Z,4.80
2018-07-07T16:00:14.588Z,3.70
2018-07-07T16:02:43.977Z,4.30
2018-07-07T16:05:13.854Z,3.90
2018-07-07T16:07:43.255Z,4.67
2018-07-07T16:10:12.773Z,4.27
2018-07-07T16:12:42.140Z,4.40
2018-07-07T16:15:11.879Z,4.40
2018-07-07T16:17:41.841Z,4.20
2018-07-07T16:20:11.313Z,3.10
2018-07-07T16:22:40.716Z,3.47
2018-07-07T16:25:10.105Z,3.57
2018-07-07T16:27:39.553Z,4.83
2018-07-07T16:30:08.979Z,3.83
2018-07-07T16:32:38.356Z,4.10
2018-07-07T16:35:07.813Z,4.80
2018-07-07T16:37:37.332Z,3.70
2018-07-07T16:40:07.006Z,4.53
2018-07-07T16:42:38.789Z,3.20
2018-07-07T16:45:08.562Z,3.70
2018-07-07T16:47:38.516Z,3.80
2018-07-07T16:50:07.987Z,3.37
2018-07-07T16:52:37.590Z,3.67
2018-07-07T16:55:07.057Z,4.10
2018-07-07T16:57:36.620Z,3.50
2018-07-07T17:00:06.097Z,3.60
2018-07-07T17:02:35.615Z,4.60
2018-07-07T17:05:05.362Z,4.03
2018-07-07T17:07:34.792Z,3.70
2018-07-07T17:10:04.508Z,4.00
2018-07-07T17:12:34.114Z,3.87
2018-07-07T17:15:03.886Z,4.03
2018-07-07T17:17:34.504Z,3.60
2018-07-07T17:20:03.912Z,3.77
2018-07-07T17:22:33.409Z,3.37
2018-07-07T17:25:02.864Z,4.03
2018-07-07T17:27:32.506Z,3.40
2018-07-07T17:30:02.057Z,3.37
2018-07-07T17:32:31.988Z,3.43
2018-07-07T17:35:02.086Z,3.87
2018-07-07T17:37:31.993Z,3.40
2018-07-07T17:40:01.719Z,3.30
2018-07-07T17:42:31.309Z,2.90
2018-07-07T17:45:01.795Z,3.27
2018-07-07T17:47:31.625Z,2.80
2018-07-07T17:50:03.094Z,3.47
2018-07-07T17:52:34.154Z,2.80
2018-07-07T17:55:05.207Z,3.43
2018-07-07T17:57:35.041Z,2.60
2018-07-07T18:00:05.083Z,2.80
2018-07-07T18:02:34.586Z,2.63
2018-07-07T18:05:04.337Z,2.70
2018-07-07T18:07:33.737Z,2.23
2018-07-07T18:10:03.132Z,2.80
2018-07-07T18:12:32.819Z,2.00
2018-07-07T18:15:02.613Z,2.60
2018-07-07T18:17:32.238Z,2.47
2018-07-07T18:20:01.635Z,2.20
2018-07-07T18:22:31.040Z,3.53
2018-07-07T18:25:00.406Z,2.67
2018-07-07T18:27:29.868Z,2.27
2018-07-07T18:29:59.305Z,2.40
2018-07-07T18:32:28.678Z,2.53
2018-07-07T18:34:58.054Z,2.67
2018-07-07T18:37:27.482Z,2.20
2018-07-07T18:39:56.870Z,2.00
2018-07-07T18:42:26.322Z,2.73
2018-07-07T18:44:55.785Z,3.23
2018-07-07T18:47:25.220Z,2.83
2018-07-07T18:49:54.601Z,3.00
2018-07-07T18:52:23.991Z,2.93
2018-07-07T18:54:53.386Z,3.20
2018-07-07T18:57:22.789Z,3.43
2018-07-07T18:59:52.225Z,2.97
2018-07-07T19:02:21.649Z,3.00
2018-07-07T19:04:51.014Z,3.10
2018-07-07T19:07:20.393Z,3.87
2018-07-07T19:09:49.859Z,3.17
2018-07-07T19:12:19.229Z,2.83
2018-07-07T19:14:48.673Z,3.30
2018-07-07T19:17:18.106Z,3.10
2018-07-07T19:19:48.476Z,3.10
2018-07-07T19:22:22.357Z,4.63
2018-07-07T19:24:56.725Z,3.60
2018-07-07T19:27:26.120Z,3.23
2018-07-07T19:29:55.517Z,2.87
2018-07-07T19:32:30.001Z,3.30
2018-07-07T19:35:04.316Z,4.00
2018-07-07T19:37:33.737Z,3.30
2018-07-07T19:40:03.138Z,2.63
2018-07-07T19:42:32.545Z,2.60
2018-07-07T19:45:01.953Z,2.80
2018-07-07T19:47:31.351Z,2.40
2018-07-07T19:50:00.761Z,3.20
2018-07-07T19:52:30.169Z,2.23
2018-07-07T19:54:59.560Z,2.70
2018-07-07T19:57:28.953Z,3.33
2018-07-07T19:59:58.345Z,2.60
2018-07-07T20:02:27.704Z,2.50
2018-07-07T20:04:57.089Z,2.53
2018-07-07T20:07:26.464Z,2.57
2018-07-07T20:09:55.895Z,2.53
2018-07-07T20:12:25.285Z,2.80
2018-07-07T20:14:54.679Z,2.60
2018-07-07T20:17:34.806Z,2.20
2018-07-07T20:20:39.523Z,2.30
2018-07-07T20:23:10.194Z,2.40
2018-07-07T20:25:39.764Z,2.97
2018-07-07T20:28:14.210Z,2.20
2018-07-07T20:30:43.597Z,2.47
2018-07-07T20:33:12.976Z,2.87
2018-07-07T20:35:42.369Z,2.40
2018-07-07T20:38:11.765Z,2.50
2018-07-07T20:40:41.134Z,2.30
2018-07-07T20:43:11.031Z,2.63
2018-07-07T20:45:40.415Z,3.03
2018-07-07T20:48:10.095Z,2.60
2018-07-07T20:50:39.948Z,2.57
2018-07-07T20:53:09.661Z,2.30
2018-07-07T20:55:39.373Z,2.73
2018-07-07T20:58:08.752Z,2.50
2018-07-07T21:00:38.923Z,2.83
2018-07-07T21:03:08.321Z,3.00
2018-07-07T21:05:37.734Z,2.30
2018-07-07T21:08:07.245Z,2.77
2018-07-07T21:10:36.705Z,2.80
2018-07-07T21:13:06.328Z,2.53
2018-07-07T21:15:36.085Z,2.60
2018-07-07T21:18:05.659Z,2.57
2018-07-07T21:20:35.370Z,2.53
2018-07-07T21:23:05.108Z,2.50
2018-07-07T21:25:34.890Z,2.80
2018-07-07T21:28:04.797Z,2.77
2018-07-07T21:30:34.499Z,2.13
2018-07-07T21:33:03.963Z,2.60
2018-07-07T21:35:33.401Z,2.07
2018-07-07T21:38:03.031Z,2.20
2018-07-07T21:40:32.450Z,2.00
2018-07-07T21:43:01.917Z,1.80
2018-07-07T21:45:31.292Z,2.03
2018-07-07T21:48:00.699Z,2.10
2018-07-07T21:50:30.155Z,2.40
2018-07-07T21:52:59.732Z,2.20
2018-07-07T21:55:29.126Z,1.80
2018-07-07T21:58:03.623Z,2.20
2018-07-07T22:00:37.944Z,2.20
2018-07-07T22:03:12.349Z,2.10
2018-07-07T22:05:46.748Z,2.87
2018-07-07T22:08:21.052Z,2.10
2018-07-07T22:10:51.743Z,1.97
2018-07-07T22:13:21.578Z,1.87
2018-07-07T22:15:52.224Z,1.90
2018-07-07T22:18:22.077Z,2.10
2018-07-07T22:21:02.091Z,2.00
2018-07-07T22:23:31.478Z,1.77
2018-07-07T22:26:01.439Z,2.03
2018-07-07T22:28:30.740Z,2.47
2018-07-07T22:31:00.192Z,1.90
2018-07-07T22:33:29.965Z,1.77
2018-07-07T22:36:04.805Z,2.20
2018-07-07T22:38:39.566Z,2.00
2018-07-07T22:41:09.440Z,1.83
2018-07-07T22:43:38.480Z,1.97
2018-07-07T22:46:07.875Z,1.70
2018-07-07T22:48:37.316Z,2.10
2018-07-07T22:51:06.794Z,2.03
2018-07-07T22:53:36.169Z,1.97
2018-07-07T22:56:05.701Z,2.37
2018-07-07T22:58:35.067Z,2.50
2018-07-07T23:01:04.494Z,2.20
2018-07-07T23:03:33.967Z,1.97
2018-07-07T23:06:03.353Z,2.10
2018-07-07T23:08:33.066Z,1.87
2018-07-07T23:11:02.820Z,2.00
2018-07-07T23:13:32.199Z,1.83
2018-07-07T23:16:01.693Z,1.60
2018-07-07T23:18:31.100Z,2.00
2018-07-07T23:21:00.481Z,1.97
2018-07-07T23:23:29.845Z,2.40
2018-07-07T23:25:59.225Z,2.40
2018-07-07T23:28:28.585Z,1.90
2018-07-07T23:30:57.972Z,1.80
2018-07-07T23:33:27.396Z,1.70
2018-07-07T23:35:56.937Z,1.53
2018-07-07T23:38:26.342Z,2.03
2018-07-07T23:40:55.753Z,1.50
2018-07-07T23:43:25.169Z,1.93
2018-07-07T23:45:54.569Z,2.00
2018-07-07T23:48:23.966Z,1.90
2018-07-07T23:50:53.419Z,1.70
2018-07-07T23:53:22.851Z,1.73
2018-07-07T23:55:52.229Z,1.70
2018-07-07T23:58:21.632Z,1.83
